sensor_id;sensor_type;location;lat;lon;timestamp;P1;durP1;ratioP1;P2;durP2;ratioP2
6356;SDS011;3211;53.452;-2.264;2023-06-22T00:02:31;4.53;;;4.00;;
6356;SDS011;3211;53.452;-2.264;2023-06-22T00:05:13;5.47;;;4.53;;
6356;SDS011;3211;53.452;-2.264;2023-06-22T00:07:55;6.00;;;4.17;;
6356;SDS011;3211;53.452;-2.264;2023-06-22T00:10:37;5.20;;;4.20;;
6356;SDS011;3211;53.452;-2.264;2023-06-22T00:13:19;4.40;;;3.77;;
6356;SDS011;3211;53.452;-2.264;2023-06-22T00:16:01;5.00;;;3.90;;
6356;SDS011;3211;53.452;-2.264;2023-06-22T00:18:44;4.47;;;3.93;;
6356;SDS011;3211;53.452;-2.264;2023-06-22T00:21:27;5.77;;;4.07;;
6356;SDS011;3211;53.452;-2.264;2023-06-22T00:24:09;4.70;;;4.10;;
6356;SDS011;3211;53.452;-2.264;2023-06-22T00:26:51;6.87;;;4.40;;
6356;SDS011;3211;53.452;-2.264;2023-06-22T00:29:33;4.80;;;4.30;;
6356;SDS011;3211;53.452;-2.264;2023-06-22T00:32:14;5.10;;;4.10;;
6356;SDS011;3211;53.452;-2.264;2023-06-22T00:34:58;5.27;;;4.70;;
6356;SDS011;3211;53.452;-2.264;2023-06-22T00:37:41;4.47;;;4.00;;
6356;SDS011;3211;53.452;-2.264;2023-06-22T00:40:23;4.00;;;3.60;;
6356;SDS011;3211;53.452;-2.264;2023-06-22T00:43:05;8.80;;;4.27;;
6356;SDS011;3211;53.452;-2.264;2023-06-22T00:45:47;5.70;;;4.30;;
6356;SDS011;3211;53.452;-2.264;2023-06-22T00:48:29;4.90;;;4.50;;
6356;SDS011;3211;53.452;-2.264;2023-06-22T00:51:12;5.27;;;4.30;;
6356;SDS011;3211;53.452;-2.264;2023-06-22T00:53:54;6.63;;;4.60;;
6356;SDS011;3211;53.452;-2.264;2023-06-22T00:56:36;4.67;;;4.27;;
6356;SDS011;3211;53.452;-2.264;2023-06-22T00:59:18;5.27;;;4.77;;
6356;SDS011;3211;53.452;-2.264;2023-06-22T01:02:00;4.47;;;4.07;;
6356;SDS011;3211;53.452;-2.264;2023-06-22T01:04:42;5.20;;;4.80;;
6356;SDS011;3211;53.452;-2.264;2023-06-22T01:07:29;5.10;;;4.53;;
6356;SDS011;3211;53.452;-2.264;2023-06-22T01:10:21;6.57;;;4.60;;
6356;SDS011;3211;53.452;-2.264;2023-06-22T01:13:14;5.00;;;4.50;;
6356;SDS011;3211;53.452;-2.264;2023-06-22T01:16:02;5.93;;;4.40;;
6356;SDS011;3211;53.452;-2.264;2023-06-22T01:18:47;5.10;;;4.60;;
6356;SDS011;3211;53.452;-2.264;2023-06-22T01:21:31;5.50;;;4.60;;
6356;SDS011;3211;53.452;-2.264;2023-06-22T01:24:18;6.53;;;4.47;;
6356;SDS011;3211;53.452;-2.264;2023-06-22T01:27:09;5.60;;;4.17;;
6356;SDS011;3211;53.452;-2.264;2023-06-22T01:30:03;4.60;;;4.20;;
6356;SDS011;3211;53.452;-2.264;2023-06-22T01:32:50;6.67;;;5.60;;
6356;SDS011;3211;53.452;-2.264;2023-06-22T01:35:34;7.30;;;5.33;;
6356;SDS011;3211;53.452;-2.264;2023-06-22T01:38:21;5.90;;;4.87;;
6356;SDS011;3211;53.452;-2.264;2023-06-22T01:41:03;6.80;;;5.73;;
6356;SDS011;3211;53.452;-2.264;2023-06-22T01:43:46;5.00;;;4.50;;
6356;SDS011;3211;53.452;-2.264;2023-06-22T01:46:30;9.53;;;5.40;;
6356;SDS011;3211;53.452;-2.264;2023-06-22T01:49:16;6.77;;;5.30;;
6356;SDS011;3211;53.452;-2.264;2023-06-22T01:51:59;5.90;;;5.20;;
6356;SDS011;3211;53.452;-2.264;2023-06-22T01:54:41;5.20;;;4.70;;
6356;SDS011;3211;53.452;-2.264;2023-06-22T01:57:23;6.37;;;5.10;;
6356;SDS011;3211;53.452;-2.264;2023-06-22T02:00:09;7.93;;;4.87;;
6356;SDS011;3211;53.452;-2.264;2023-06-22T02:02:56;9.53;;;5.10;;
6356;SDS011;3211;53.452;-2.264;2023-06-22T02:05:42;6.03;;;5.43;;
6356;SDS011;3211;53.452;-2.264;2023-06-22T02:08:29;5.90;;;4.90;;
6356;SDS011;3211;53.452;-2.264;2023-06-22T02:11:19;6.20;;;5.13;;
6356;SDS011;3211;53.452;-2.264;2023-06-22T02:14:02;6.90;;;5.13;;
6356;SDS011;3211;53.452;-2.264;2023-06-22T02:16:46;6.30;;;5.00;;
6356;SDS011;3211;53.452;-2.264;2023-06-22T02:19:30;7.27;;;5.63;;
6356;SDS011;3211;53.452;-2.264;2023-06-22T02:22:16;6.10;;;4.97;;
6356;SDS011;3211;53.452;-2.264;2023-06-22T02:24:58;9.27;;;5.10;;
6356;SDS011;3211;53.452;-2.264;2023-06-22T02:27:40;7.30;;;6.07;;
6356;SDS011;3211;53.452;-2.264;2023-06-22T02:30:22;8.37;;;6.07;;
6356;SDS011;3211;53.452;-2.264;2023-06-22T02:33:16;6.30;;;5.70;;
6356;SDS011;3211;53.452;-2.264;2023-06-22T02:36:00;8.03;;;5.40;;
6356;SDS011;3211;53.452;-2.264;2023-06-22T02:38:45;5.77;;;5.20;;
6356;SDS011;3211;53.452;-2.264;2023-06-22T02:41:28;5.80;;;5.17;;
6356;SDS011;3211;53.452;-2.264;2023-06-22T02:44:13;5.67;;;4.70;;
6356;SDS011;3211;53.452;-2.264;2023-06-22T02:46:55;6.60;;;5.23;;
6356;SDS011;3211;53.452;-2.264;2023-06-22T02:49:37;6.70;;;5.73;;
6356;SDS011;3211;53.452;-2.264;2023-06-22T02:52:20;6.63;;;5.60;;
6356;SDS011;3211;53.452;-2.264;2023-06-22T02:55:07;6.07;;;5.33;;
6356;SDS011;3211;53.452;-2.264;2023-06-22T02:57:49;6.03;;;5.43;;
6356;SDS011;3211;53.452;-2.264;2023-06-22T03:00:32;7.40;;;5.70;;
6356;SDS011;3211;53.452;-2.264;2023-06-22T03:03:14;10.03;;;5.70;;
6356;SDS011;3211;53.452;-2.264;2023-06-22T03:05:56;6.40;;;4.90;;
6356;SDS011;3211;53.452;-2.264;2023-06-22T03:08:39;7.07;;;5.50;;
6356;SDS011;3211;53.452;-2.264;2023-06-22T03:11:21;6.53;;;5.37;;
6356;SDS011;3211;53.452;-2.264;2023-06-22T03:14:03;6.27;;;5.63;;
6356;SDS011;3211;53.452;-2.264;2023-06-22T03:16:45;7.20;;;5.93;;
6356;SDS011;3211;53.452;-2.264;2023-06-22T03:19:27;9.10;;;5.40;;
6356;SDS011;3211;53.452;-2.264;2023-06-22T03:22:13;6.77;;;5.57;;
6356;SDS011;3211;53.452;-2.264;2023-06-22T03:24:57;7.13;;;5.73;;
6356;SDS011;3211;53.452;-2.264;2023-06-22T03:27:39;8.50;;;6.70;;
6356;SDS011;3211;53.452;-2.264;2023-06-22T03:30:21;8.33;;;6.77;;
6356;SDS011;3211;53.452;-2.264;2023-06-22T03:33:03;9.30;;;6.57;;
6356;SDS011;3211;53.452;-2.264;2023-06-22T03:35:45;7.93;;;6.60;;
6356;SDS011;3211;53.452;-2.264;2023-06-22T03:38:27;8.40;;;6.30;;
6356;SDS011;3211;53.452;-2.264;2023-06-22T03:41:14;5.60;;;5.00;;
6356;SDS011;3211;53.452;-2.264;2023-06-22T03:43:56;6.80;;;5.83;;
6356;SDS011;3211;53.452;-2.264;2023-06-22T03:46:38;9.83;;;7.20;;
6356;SDS011;3211;53.452;-2.264;2023-06-22T03:49:20;7.90;;;6.23;;
6356;SDS011;3211;53.452;-2.264;2023-06-22T03:52:06;6.30;;;5.60;;
6356;SDS011;3211;53.452;-2.264;2023-06-22T03:54:49;9.90;;;6.63;;
6356;SDS011;3211;53.452;-2.264;2023-06-22T03:57:32;9.80;;;6.20;;
6356;SDS011;3211;53.452;-2.264;2023-06-22T04:00:15;8.60;;;6.30;;
6356;SDS011;3211;53.452;-2.264;2023-06-22T04:03:00;7.20;;;6.30;;
6356;SDS011;3211;53.452;-2.264;2023-06-22T04:05:42;7.70;;;6.30;;
6356;SDS011;3211;53.452;-2.264;2023-06-22T04:08:24;9.10;;;6.83;;
6356;SDS011;3211;53.452;-2.264;2023-06-22T04:11:06;8.13;;;6.00;;
6356;SDS011;3211;53.452;-2.264;2023-06-22T04:13:49;9.53;;;6.53;;
6356;SDS011;3211;53.452;-2.264;2023-06-22T04:16:31;7.67;;;6.50;;
6356;SDS011;3211;53.452;-2.264;2023-06-22T04:19:17;8.00;;;5.77;;
6356;SDS011;3211;53.452;-2.264;2023-06-22T04:21:59;8.20;;;6.60;;
6356;SDS011;3211;53.452;-2.264;2023-06-22T04:24:41;9.57;;;6.97;;
6356;SDS011;3211;53.452;-2.264;2023-06-22T04:27:23;8.83;;;6.07;;
6356;SDS011;3211;53.452;-2.264;2023-06-22T04:30:13;8.43;;;6.40;;
6356;SDS011;3211;53.452;-2.264;2023-06-22T04:32:56;7.27;;;5.80;;
6356;SDS011;3211;53.452;-2.264;2023-06-22T04:35:38;8.27;;;7.07;;
6356;SDS011;3211;53.452;-2.264;2023-06-22T04:38:21;7.57;;;6.00;;
6356;SDS011;3211;53.452;-2.264;2023-06-22T04:41:07;6.90;;;6.10;;
6356;SDS011;3211;53.452;-2.264;2023-06-22T04:44:03;10.47;;;6.80;;
6356;SDS011;3211;53.452;-2.264;2023-06-22T04:46:47;9.60;;;6.00;;
6356;SDS011;3211;53.452;-2.264;2023-06-22T04:49:34;9.97;;;5.93;;
6356;SDS011;3211;53.452;-2.264;2023-06-22T04:52:21;7.10;;;6.40;;
6356;SDS011;3211;53.452;-2.264;2023-06-22T04:55:05;14.40;;;6.33;;
6356;SDS011;3211;53.452;-2.264;2023-06-22T04:57:52;7.90;;;6.00;;
6356;SDS011;3211;53.452;-2.264;2023-06-22T05:00:34;7.77;;;5.63;;
6356;SDS011;3211;53.452;-2.264;2023-06-22T05:03:18;7.37;;;5.63;;
6356;SDS011;3211;53.452;-2.264;2023-06-22T05:06:00;9.23;;;5.60;;
6356;SDS011;3211;53.452;-2.264;2023-06-22T05:08:42;8.97;;;5.50;;
6356;SDS011;3211;53.452;-2.264;2023-06-22T05:11:25;6.67;;;5.40;;
6356;SDS011;3211;53.452;-2.264;2023-06-22T05:14:10;5.90;;;5.23;;
6356;SDS011;3211;53.452;-2.264;2023-06-22T05:16:52;9.83;;;5.73;;
6356;SDS011;3211;53.452;-2.264;2023-06-22T05:19:40;10.97;;;6.40;;
6356;SDS011;3211;53.452;-2.264;2023-06-22T05:22:25;7.80;;;5.53;;
6356;SDS011;3211;53.452;-2.264;2023-06-22T05:25:08;9.10;;;5.77;;
6356;SDS011;3211;53.452;-2.264;2023-06-22T05:27:50;6.53;;;4.77;;
6356;SDS011;3211;53.452;-2.264;2023-06-22T05:30:32;7.60;;;5.97;;
6356;SDS011;3211;53.452;-2.264;2023-06-22T05:33:14;7.30;;;5.70;;
6356;SDS011;3211;53.452;-2.264;2023-06-22T05:35:57;6.47;;;5.70;;
6356;SDS011;3211;53.452;-2.264;2023-06-22T05:38:40;15.40;;;6.03;;
6356;SDS011;3211;53.452;-2.264;2023-06-22T05:41:22;6.83;;;6.00;;
6356;SDS011;3211;53.452;-2.264;2023-06-22T05:44:04;6.90;;;6.20;;
6356;SDS011;3211;53.452;-2.264;2023-06-22T05:46:46;9.80;;;5.80;;
6356;SDS011;3211;53.452;-2.264;2023-06-22T05:49:28;9.47;;;6.60;;
6356;SDS011;3211;53.452;-2.264;2023-06-22T05:52:14;8.03;;;7.00;;
6356;SDS011;3211;53.452;-2.264;2023-06-22T05:54:56;7.40;;;6.70;;
6356;SDS011;3211;53.452;-2.264;2023-06-22T05:57:38;9.10;;;7.17;;
6356;SDS011;3211;53.452;-2.264;2023-06-22T06:00:20;10.43;;;6.37;;
6356;SDS011;3211;53.452;-2.264;2023-06-22T06:03:03;9.00;;;6.20;;
6356;SDS011;3211;53.452;-2.264;2023-06-22T06:05:45;8.80;;;7.37;;
6356;SDS011;3211;53.452;-2.264;2023-06-22T06:08:29;8.50;;;6.87;;
6356;SDS011;3211;53.452;-2.264;2023-06-22T06:11:11;6.63;;;5.90;;
6356;SDS011;3211;53.452;-2.264;2023-06-22T06:13:53;6.83;;;5.77;;
6356;SDS011;3211;53.452;-2.264;2023-06-22T06:16:35;8.43;;;6.10;;
6356;SDS011;3211;53.452;-2.264;2023-06-22T06:19:16;7.90;;;6.17;;
6356;SDS011;3211;53.452;-2.264;2023-06-22T06:21:58;8.50;;;6.67;;
6356;SDS011;3211;53.452;-2.264;2023-06-22T06:24:42;6.23;;;5.20;;
6356;SDS011;3211;53.452;-2.264;2023-06-22T06:27:24;8.67;;;6.40;;
6356;SDS011;3211;53.452;-2.264;2023-06-22T06:30:09;8.73;;;6.80;;
6356;SDS011;3211;53.452;-2.264;2023-06-22T06:32:52;8.67;;;6.13;;
6356;SDS011;3211;53.452;-2.264;2023-06-22T06:35:34;6.20;;;5.60;;
6356;SDS011;3211;53.452;-2.264;2023-06-22T06:38:17;6.67;;;5.67;;
6356;SDS011;3211;53.452;-2.264;2023-06-22T06:41:01;7.07;;;5.90;;
6356;SDS011;3211;53.452;-2.264;2023-06-22T06:43:43;7.27;;;6.00;;
6356;SDS011;3211;53.452;-2.264;2023-06-22T06:46:24;10.03;;;6.00;;
6356;SDS011;3211;53.452;-2.264;2023-06-22T06:49:06;8.83;;;7.17;;
6356;SDS011;3211;53.452;-2.264;2023-06-22T06:51:48;8.80;;;6.03;;
6356;SDS011;3211;53.452;-2.264;2023-06-22T06:54:30;8.50;;;5.87;;
6356;SDS011;3211;53.452;-2.264;2023-06-22T06:57:14;8.13;;;6.20;;
6356;SDS011;3211;53.452;-2.264;2023-06-22T06:59:56;9.43;;;8.47;;
6356;SDS011;3211;53.452;-2.264;2023-06-22T07:02:38;8.90;;;7.20;;
6356;SDS011;3211;53.452;-2.264;2023-06-22T07:05:21;11.17;;;6.70;;
6356;SDS011;3211;53.452;-2.264;2023-06-22T07:08:03;7.70;;;5.97;;
6356;SDS011;3211;53.452;-2.264;2023-06-22T07:10:45;6.40;;;5.33;;
6356;SDS011;3211;53.452;-2.264;2023-06-22T07:13:29;6.80;;;6.10;;
6356;SDS011;3211;53.452;-2.264;2023-06-22T07:16:10;6.03;;;4.77;;
6356;SDS011;3211;53.452;-2.264;2023-06-22T07:18:52;6.50;;;5.80;;
6356;SDS011;3211;53.452;-2.264;2023-06-22T07:21:34;7.77;;;5.17;;
6356;SDS011;3211;53.452;-2.264;2023-06-22T07:24:16;9.70;;;6.10;;
6356;SDS011;3211;53.452;-2.264;2023-06-22T07:27:00;8.73;;;6.70;;
6356;SDS011;3211;53.452;-2.264;2023-06-22T07:29:44;7.97;;;6.00;;
6356;SDS011;3211;53.452;-2.264;2023-06-22T07:32:26;6.23;;;5.60;;
6356;SDS011;3211;53.452;-2.264;2023-06-22T07:35:08;8.30;;;6.00;;
6356;SDS011;3211;53.452;-2.264;2023-06-22T07:37:50;6.33;;;5.00;;
6356;SDS011;3211;53.452;-2.264;2023-06-22T07:40:32;8.20;;;5.33;;
6356;SDS011;3211;53.452;-2.264;2023-06-22T07:43:15;7.20;;;6.13;;
6356;SDS011;3211;53.452;-2.264;2023-06-22T07:45:58;6.57;;;5.87;;
6356;SDS011;3211;53.452;-2.264;2023-06-22T07:48:40;9.03;;;6.43;;
6356;SDS011;3211;53.452;-2.264;2023-06-22T07:51:24;7.50;;;6.67;;
6356;SDS011;3211;53.452;-2.264;2023-06-22T07:54:05;7.87;;;5.77;;
6356;SDS011;3211;53.452;-2.264;2023-06-22T07:56:48;7.33;;;5.83;;
6356;SDS011;3211;53.452;-2.264;2023-06-22T07:59:30;6.40;;;5.80;;
6356;SDS011;3211;53.452;-2.264;2023-06-22T08:02:13;8.43;;;5.97;;
6356;SDS011;3211;53.452;-2.264;2023-06-22T08:04:55;7.60;;;5.70;;
6356;SDS011;3211;53.452;-2.264;2023-06-22T08:07:37;6.87;;;5.80;;
6356;SDS011;3211;53.452;-2.264;2023-06-22T08:10:21;8.53;;;6.00;;
6356;SDS011;3211;53.452;-2.264;2023-06-22T08:13:04;7.23;;;5.70;;
6356;SDS011;3211;53.452;-2.264;2023-06-22T08:15:46;9.83;;;6.50;;
6356;SDS011;3211;53.452;-2.264;2023-06-22T08:18:29;7.80;;;5.60;;
6356;SDS011;3211;53.452;-2.264;2023-06-22T08:21:11;7.00;;;5.37;;
6356;SDS011;3211;53.452;-2.264;2023-06-22T08:23:53;7.97;;;5.90;;
6356;SDS011;3211;53.452;-2.264;2023-06-22T08:26:35;8.03;;;5.80;;
6356;SDS011;3211;53.452;-2.264;2023-06-22T08:29:17;7.97;;;5.67;;
6356;SDS011;3211;53.452;-2.264;2023-06-22T08:32:00;12.63;;;6.20;;
6356;SDS011;3211;53.452;-2.264;2023-06-22T08:34:43;8.73;;;5.80;;
6356;SDS011;3211;53.452;-2.264;2023-06-22T08:37:26;7.57;;;6.20;;
6356;SDS011;3211;53.452;-2.264;2023-06-22T08:40:11;10.33;;;5.77;;
6356;SDS011;3211;53.452;-2.264;2023-06-22T08:42:53;6.30;;;5.70;;
6356;SDS011;3211;53.452;-2.264;2023-06-22T08:45:37;7.10;;;6.40;;
6356;SDS011;3211;53.452;-2.264;2023-06-22T08:48:19;6.37;;;5.77;;
6356;SDS011;3211;53.452;-2.264;2023-06-22T08:51:02;8.60;;;6.50;;
6356;SDS011;3211;53.452;-2.264;2023-06-22T08:53:45;8.37;;;6.17;;
6356;SDS011;3211;53.452;-2.264;2023-06-22T08:56:27;9.30;;;6.80;;
6356;SDS011;3211;53.452;-2.264;2023-06-22T08:59:09;11.50;;;6.50;;
6356;SDS011;3211;53.452;-2.264;2023-06-22T09:01:51;6.90;;;6.20;;
6356;SDS011;3211;53.452;-2.264;2023-06-22T09:04:33;7.47;;;6.27;;
6356;SDS011;3211;53.452;-2.264;2023-06-22T09:07:17;8.47;;;7.57;;
6356;SDS011;3211;53.452;-2.264;2023-06-22T09:10:03;8.47;;;6.40;;
6356;SDS011;3211;53.452;-2.264;2023-06-22T09:12:45;7.90;;;5.80;;
6356;SDS011;3211;53.452;-2.264;2023-06-22T09:15:27;8.83;;;7.10;;
6356;SDS011;3211;53.452;-2.264;2023-06-22T09:18:10;8.90;;;6.30;;
6356;SDS011;3211;53.452;-2.264;2023-06-22T09:20:53;9.40;;;5.70;;
6356;SDS011;3211;53.452;-2.264;2023-06-22T09:23:36;6.57;;;5.70;;
6356;SDS011;3211;53.452;-2.264;2023-06-22T09:26:20;6.63;;;5.20;;
6356;SDS011;3211;53.452;-2.264;2023-06-22T09:29:04;4.87;;;4.07;;
6356;SDS011;3211;53.452;-2.264;2023-06-22T09:31:46;6.90;;;4.03;;
6356;SDS011;3211;53.452;-2.264;2023-06-22T09:34:29;3.63;;;3.23;;
6356;SDS011;3211;53.452;-2.264;2023-06-22T09:37:11;3.50;;;3.17;;
6356;SDS011;3211;53.452;-2.264;2023-06-22T09:39:54;4.17;;;3.77;;
6356;SDS011;3211;53.452;-2.264;2023-06-22T09:42:36;6.00;;;3.43;;
6356;SDS011;3211;53.452;-2.264;2023-06-22T09:45:19;4.17;;;3.80;;
6356;SDS011;3211;53.452;-2.264;2023-06-22T09:48:01;3.87;;;3.30;;
6356;SDS011;3211;53.452;-2.264;2023-06-22T09:50:42;3.67;;;3.33;;
6356;SDS011;3211;53.452;-2.264;2023-06-22T09:53:25;4.20;;;3.67;;
6356;SDS011;3211;53.452;-2.264;2023-06-22T09:56:09;4.20;;;3.60;;
6356;SDS011;3211;53.452;-2.264;2023-06-22T09:58:55;4.70;;;4.20;;
6356;SDS011;3211;53.452;-2.264;2023-06-22T10:01:37;3.20;;;2.90;;
6356;SDS011;3211;53.452;-2.264;2023-06-22T10:04:20;5.30;;;4.03;;
6356;SDS011;3211;53.452;-2.264;2023-06-22T10:07:02;5.33;;;4.07;;
6356;SDS011;3211;53.452;-2.264;2023-06-22T10:09:44;6.37;;;3.70;;
6356;SDS011;3211;53.452;-2.264;2023-06-22T10:12:30;4.77;;;4.10;;
6356;SDS011;3211;53.452;-2.264;2023-06-22T10:15:15;4.77;;;4.10;;
6356;SDS011;3211;53.452;-2.264;2023-06-22T10:17:57;6.07;;;3.97;;
6356;SDS011;3211;53.452;-2.264;2023-06-22T10:20:40;5.37;;;3.70;;
6356;SDS011;3211;53.452;-2.264;2023-06-22T10:23:23;4.47;;;3.33;;
6356;SDS011;3211;53.452;-2.264;2023-06-22T10:26:05;3.40;;;3.10;;
6356;SDS011;3211;53.452;-2.264;2023-06-22T10:28:49;4.93;;;3.20;;
6356;SDS011;3211;53.452;-2.264;2023-06-22T10:31:31;3.33;;;3.03;;
6356;SDS011;3211;53.452;-2.264;2023-06-22T10:34:13;5.20;;;3.90;;
6356;SDS011;3211;53.452;-2.264;2023-06-22T10:36:55;5.57;;;3.03;;
6356;SDS011;3211;53.452;-2.264;2023-06-22T10:39:37;5.67;;;3.23;;
6356;SDS011;3211;53.452;-2.264;2023-06-22T10:42:19;3.67;;;3.37;;
6356;SDS011;3211;53.452;-2.264;2023-06-22T10:45:02;4.40;;;3.67;;
6356;SDS011;3211;53.452;-2.264;2023-06-22T10:47:45;3.73;;;3.30;;
6356;SDS011;3211;53.452;-2.264;2023-06-22T10:50:27;4.97;;;3.83;;
6356;SDS011;3211;53.452;-2.264;2023-06-22T10:53:09;5.23;;;3.70;;
6356;SDS011;3211;53.452;-2.264;2023-06-22T10:55:51;5.43;;;3.53;;
6356;SDS011;3211;53.452;-2.264;2023-06-22T10:58:34;3.93;;;3.50;;
6356;SDS011;3211;53.452;-2.264;2023-06-22T11:01:17;6.33;;;3.70;;
6356;SDS011;3211;53.452;-2.264;2023-06-22T11:03:59;5.33;;;3.50;;
6356;SDS011;3211;53.452;-2.264;2023-06-22T11:06:42;4.13;;;3.27;;
6356;SDS011;3211;53.452;-2.264;2023-06-22T11:09:24;4.10;;;3.43;;
6356;SDS011;3211;53.452;-2.264;2023-06-22T11:12:06;4.93;;;3.53;;
6356;SDS011;3211;53.452;-2.264;2023-06-22T11:14:49;6.70;;;3.60;;
6356;SDS011;3211;53.452;-2.264;2023-06-22T11:17:34;4.27;;;3.43;;
6356;SDS011;3211;53.452;-2.264;2023-06-22T11:20:18;6.23;;;3.37;;
6356;SDS011;3211;53.452;-2.264;2023-06-22T11:23:00;5.53;;;3.80;;
6356;SDS011;3211;53.452;-2.264;2023-06-22T11:25:43;5.07;;;3.80;;
6356;SDS011;3211;53.452;-2.264;2023-06-22T11:28:26;4.90;;;3.43;;
6356;SDS011;3211;53.452;-2.264;2023-06-22T11:31:09;5.53;;;3.40;;
6356;SDS011;3211;53.452;-2.264;2023-06-22T11:33:52;4.60;;;3.33;;
6356;SDS011;3211;53.452;-2.264;2023-06-22T11:36:34;4.37;;;3.00;;
6356;SDS011;3211;53.452;-2.264;2023-06-22T11:39:16;6.20;;;3.50;;
6356;SDS011;3211;53.452;-2.264;2023-06-22T11:41:58;3.50;;;3.20;;
6356;SDS011;3211;53.452;-2.264;2023-06-22T11:44:41;4.37;;;3.07;;
6356;SDS011;3211;53.452;-2.264;2023-06-22T11:47:23;3.47;;;3.17;;
6356;SDS011;3211;53.452;-2.264;2023-06-22T11:50:07;6.03;;;3.10;;
6356;SDS011;3211;53.452;-2.264;2023-06-22T11:52:50;3.23;;;2.87;;
6356;SDS011;3211;53.452;-2.264;2023-06-22T11:55:33;4.00;;;3.20;;
6356;SDS011;3211;53.452;-2.264;2023-06-22T11:58:15;3.00;;;2.70;;
6356;SDS011;3211;53.452;-2.264;2023-06-22T12:00:57;3.20;;;2.83;;
6356;SDS011;3211;53.452;-2.264;2023-06-22T12:03:39;3.57;;;3.10;;
6356;SDS011;3211;53.452;-2.264;2023-06-22T12:06:24;4.37;;;3.80;;
6356;SDS011;3211;53.452;-2.264;2023-06-22T12:09:08;3.43;;;3.13;;
6356;SDS011;3211;53.452;-2.264;2023-06-22T12:11:53;3.60;;;3.20;;
6356;SDS011;3211;53.452;-2.264;2023-06-22T12:14:36;3.40;;;3.10;;
6356;SDS011;3211;53.452;-2.264;2023-06-22T12:17:18;10.23;;;3.40;;
6356;SDS011;3211;53.452;-2.264;2023-06-22T12:20:00;3.47;;;3.17;;
6356;SDS011;3211;53.452;-2.264;2023-06-22T12:22:47;5.13;;;3.27;;
6356;SDS011;3211;53.452;-2.264;2023-06-22T12:25:31;3.70;;;3.00;;
6356;SDS011;3211;53.452;-2.264;2023-06-22T12:28:13;9.90;;;3.70;;
6356;SDS011;3211;53.452;-2.264;2023-06-22T12:30:55;4.37;;;3.20;;
6356;SDS011;3211;53.452;-2.264;2023-06-22T12:33:37;4.20;;;3.30;;
6356;SDS011;3211;53.452;-2.264;2023-06-22T12:36:19;6.60;;;3.20;;
6356;SDS011;3211;53.452;-2.264;2023-06-22T12:39:03;4.10;;;3.07;;
6356;SDS011;3211;53.452;-2.264;2023-06-22T12:41:46;3.87;;;2.80;;
6356;SDS011;3211;53.452;-2.264;2023-06-22T12:44:28;6.70;;;3.07;;
6356;SDS011;3211;53.452;-2.264;2023-06-22T12:47:10;4.30;;;3.50;;
6356;SDS011;3211;53.452;-2.264;2023-06-22T12:49:53;3.50;;;3.20;;
6356;SDS011;3211;53.452;-2.264;2023-06-22T12:52:36;6.47;;;3.30;;
6356;SDS011;3211;53.452;-2.264;2023-06-22T12:55:22;3.33;;;3.00;;
6356;SDS011;3211;53.452;-2.264;2023-06-22T12:58:04;4.10;;;3.13;;
6356;SDS011;3211;53.452;-2.264;2023-06-22T13:00:46;4.43;;;2.73;;
6356;SDS011;3211;53.452;-2.264;2023-06-22T13:03:28;4.17;;;3.37;;
6356;SDS011;3211;53.452;-2.264;2023-06-22T13:06:10;4.90;;;3.40;;
6356;SDS011;3211;53.452;-2.264;2023-06-22T13:08:52;3.47;;;2.90;;
6356;SDS011;3211;53.452;-2.264;2023-06-22T13:11:35;4.77;;;3.10;;
6356;SDS011;3211;53.452;-2.264;2023-06-22T13:14:18;5.93;;;3.40;;
6356;SDS011;3211;53.452;-2.264;2023-06-22T13:16:59;3.17;;;2.80;;
6356;SDS011;3211;53.452;-2.264;2023-06-22T13:19:41;3.47;;;2.77;;
6356;SDS011;3211;53.452;-2.264;2023-06-22T13:22:28;3.40;;;3.10;;
6356;SDS011;3211;53.452;-2.264;2023-06-22T13:25:11;3.13;;;2.83;;
6356;SDS011;3211;53.452;-2.264;2023-06-22T13:27:56;3.17;;;2.87;;
6356;SDS011;3211;53.452;-2.264;2023-06-22T13:30:38;4.10;;;3.17;;
6356;SDS011;3211;53.452;-2.264;2023-06-22T13:33:20;4.17;;;3.50;;
6356;SDS011;3211;53.452;-2.264;2023-06-22T13:36:02;4.50;;;3.20;;
6356;SDS011;3211;53.452;-2.264;2023-06-22T13:38:46;7.10;;;3.03;;
6356;SDS011;3211;53.452;-2.264;2023-06-22T13:41:29;4.13;;;2.73;;
6356;SDS011;3211;53.452;-2.264;2023-06-22T13:44:13;5.07;;;2.73;;
6356;SDS011;3211;53.452;-2.264;2023-06-22T13:46:55;4.70;;;3.00;;
6356;SDS011;3211;53.452;-2.264;2023-06-22T13:49:37;3.83;;;2.80;;
6356;SDS011;3211;53.452;-2.264;2023-06-22T13:52:19;4.13;;;2.83;;
6356;SDS011;3211;53.452;-2.264;2023-06-22T13:55:02;5.17;;;3.07;;
6356;SDS011;3211;53.452;-2.264;2023-06-22T13:57:45;2.93;;;2.60;;
6356;SDS011;3211;53.452;-2.264;2023-06-22T14:00:28;3.67;;;2.80;;
6356;SDS011;3211;53.452;-2.264;2023-06-22T14:03:10;3.50;;;2.70;;
6356;SDS011;3211;53.452;-2.264;2023-06-22T14:05:56;4.00;;;2.87;;
6356;SDS011;3211;53.452;-2.264;2023-06-22T14:08:38;3.17;;;2.63;;
6356;SDS011;3211;53.452;-2.264;2023-06-22T14:11:21;2.63;;;2.43;;
6356;SDS011;3211;53.452;-2.264;2023-06-22T14:14:03;3.67;;;2.60;;
6356;SDS011;3211;53.452;-2.264;2023-06-22T14:16:46;4.97;;;2.57;;
6356;SDS011;3211;53.452;-2.264;2023-06-22T14:19:29;5.13;;;2.87;;
6356;SDS011;3211;53.452;-2.264;2023-06-22T14:22:12;2.87;;;2.60;;
6356;SDS011;3211;53.452;-2.264;2023-06-22T14:24:54;3.43;;;3.07;;
6356;SDS011;3211;53.452;-2.264;2023-06-22T14:27:37;3.23;;;2.47;;
6356;SDS011;3211;53.452;-2.264;2023-06-22T14:30:19;3.20;;;2.90;;
6356;SDS011;3211;53.452;-2.264;2023-06-22T14:33:03;7.73;;;2.97;;
6356;SDS011;3211;53.452;-2.264;2023-06-22T14:35:45;3.30;;;2.60;;
6356;SDS011;3211;53.452;-2.264;2023-06-22T14:38:27;4.97;;;2.70;;
6356;SDS011;3211;53.452;-2.264;2023-06-22T14:41:09;3.27;;;2.97;;
6356;SDS011;3211;53.452;-2.264;2023-06-22T14:43:51;3.60;;;3.00;;
6356;SDS011;3211;53.452;-2.264;2023-06-22T14:46:33;3.10;;;2.33;;
6356;SDS011;3211;53.452;-2.264;2023-06-22T14:49:18;3.40;;;3.10;;
6356;SDS011;3211;53.452;-2.264;2023-06-22T14:52:00;3.40;;;2.80;;
6356;SDS011;3211;53.452;-2.264;2023-06-22T14:54:42;4.03;;;2.63;;
6356;SDS011;3211;53.452;-2.264;2023-06-22T14:57:25;7.13;;;3.03;;
6356;SDS011;3211;53.452;-2.264;2023-06-22T15:00:07;4.50;;;3.03;;
6356;SDS011;3211;53.452;-2.264;2023-06-22T15:02:49;6.00;;;3.23;;
6356;SDS011;3211;53.452;-2.264;2023-06-22T15:05:33;3.43;;;3.13;;
6356;SDS011;3211;53.452;-2.264;2023-06-22T15:08:15;4.20;;;3.10;;
6356;SDS011;3211;53.452;-2.264;2023-06-22T15:10:58;5.20;;;2.80;;
6356;SDS011;3211;53.452;-2.264;2023-06-22T15:13:41;5.43;;;3.17;;
6356;SDS011;3211;53.452;-2.264;2023-06-22T15:16:23;5.73;;;2.77;;
6356;SDS011;3211;53.452;-2.264;2023-06-22T15:19:06;4.53;;;3.50;;
6356;SDS011;3211;53.452;-2.264;2023-06-22T15:21:51;5.67;;;2.83;;
6356;SDS011;3211;53.452;-2.264;2023-06-22T15:24:33;3.63;;;2.90;;
6356;SDS011;3211;53.452;-2.264;2023-06-22T15:27:15;4.27;;;2.90;;
6356;SDS011;3211;53.452;-2.264;2023-06-22T15:29:57;3.37;;;2.60;;
6356;SDS011;3211;53.452;-2.264;2023-06-22T15:32:40;4.23;;;3.10;;
6356;SDS011;3211;53.452;-2.264;2023-06-22T15:35:24;4.23;;;3.20;;
6356;SDS011;3211;53.452;-2.264;2023-06-22T15:38:08;4.67;;;2.80;;
6356;SDS011;3211;53.452;-2.264;2023-06-22T15:40:50;7.60;;;2.90;;
6356;SDS011;3211;53.452;-2.264;2023-06-22T15:43:32;6.40;;;3.30;;
6356;SDS011;3211;53.452;-2.264;2023-06-22T15:46:14;4.43;;;3.13;;
6356;SDS011;3211;53.452;-2.264;2023-06-22T15:48:57;3.23;;;2.60;;
6356;SDS011;3211;53.452;-2.264;2023-06-22T15:51:40;2.80;;;2.50;;
6356;SDS011;3211;53.452;-2.264;2023-06-22T15:54:23;3.00;;;2.37;;
6356;SDS011;3211;53.452;-2.264;2023-06-22T15:57:05;5.03;;;3.00;;
6356;SDS011;3211;53.452;-2.264;2023-06-22T15:59:47;3.60;;;2.80;;
6356;SDS011;3211;53.452;-2.264;2023-06-22T16:02:29;3.70;;;2.40;;
6356;SDS011;3211;53.452;-2.264;2023-06-22T16:05:11;4.10;;;3.00;;
6356;SDS011;3211;53.452;-2.264;2023-06-22T16:07:54;3.37;;;2.83;;
6356;SDS011;3211;53.452;-2.264;2023-06-22T16:10:38;6.07;;;2.70;;
6356;SDS011;3211;53.452;-2.264;2023-06-22T16:13:20;3.70;;;2.30;;
6356;SDS011;3211;53.452;-2.264;2023-06-22T16:16:02;3.80;;;3.00;;
6356;SDS011;3211;53.452;-2.264;2023-06-22T16:18:44;4.10;;;2.73;;
6356;SDS011;3211;53.452;-2.264;2023-06-22T16:21:27;4.93;;;3.20;;
6356;SDS011;3211;53.452;-2.264;2023-06-22T16:24:09;4.83;;;3.00;;
6356;SDS011;3211;53.452;-2.264;2023-06-22T16:26:52;3.53;;;2.60;;
6356;SDS011;3211;53.452;-2.264;2023-06-22T16:29:34;6.10;;;3.03;;
6356;SDS011;3211;53.452;-2.264;2023-06-22T16:32:19;4.27;;;3.27;;
6356;SDS011;3211;53.452;-2.264;2023-06-22T16:35:01;4.10;;;2.73;;
6356;SDS011;3211;53.452;-2.264;2023-06-22T16:37:43;5.87;;;3.10;;